सभी
Cowell Airport (Cowell, South Australia) YCWL मौसम
There is no TAF data available at YCWL or any nearby airports.
There is no METAR data available at YCWL. Showing METAR data for YCEE (22 mi W).
Recent CVC METAR history (no data for YCWL)
| Date | Time (ACST) | Flight Rules | Wind Dir. | Speed | Type | Height AGL (ft) | Visibility | Temp (°C) | Temp (°F) | Dew Point (°C) | Dew Point (°F) | Rel. Humid. | Pressure | Density Altitude | Remarks |
|---|---|---|---|---|---|---|---|---|---|---|---|---|---|---|---|
| 03-मई | 09:30 | n/a | 310° | 19 kt | Missing | 13° | 55° | 9° | 48° | 77% | 1012 mb | 385 ft | |||
| 03-मई | 08:30 | n/a | 320° | 17 kt | Missing | 12° | 53° | 9° | 48° | 82% | 1012 mb | 265 ft | |||
| 03-मई | 07:30 | n/a | 320° | 17 kt | Missing | 11° | 51° | 8° | 46° | 82% | 1012 mb | 145 ft | |||
| 03-मई | 06:30 | n/a | 320° | 16 kt | Missing | 11° | 51° | 8° | 46° | 82% | 1011 mb | 174 ft | |||
| 03-मई | 05:30 | n/a | 310° | 16 kt | Missing | 11° | 51° | 8° | 46° | 82% | 1011 mb | 174 ft | |||
| 03-मई | 04:30 | n/a | 320° | 15 kt | Missing | 11° | 51° | 8° | 46° | 82% | 1011 mb | 174 ft | |||
| 03-मई | 03:30 | n/a | 320° | 13 kt | Missing | 11° | 51° | 8° | 46° | 82% | 1011 mb | 174 ft | |||
| 03-मई | 02:30 | n/a | 320° | 14 kt | Missing | 12° | 53° | 9° | 48° | 82% | 1011 mb | 294 ft | |||
| 03-मई | 01:30 | n/a | 320° | 13 kt | Missing | 12° | 53° | 9° | 48° | 82% | 1011 mb | 294 ft | |||
| 03-मई | 00:30 | n/a | 310° | 13 kt | Missing | 12° | 53° | 9° | 48° | 82% | 1011 mb | 294 ft | |||
| 02-मई | 23:30 | n/a | 320° | 16 kt | Missing | 12° | 53° | 9° | 48° | 82% | 1011 mb | 294 ft | |||
| 02-मई | 22:30 | n/a | 320° | 16 kt | Missing | 12° | 53° | 9° | 48° | 82% | 1012 mb | 265 ft | |||
| 02-मई | 21:30 | n/a | 320° | 16 kt | Missing | 13° | 55° | 9° | 48° | 77% | 1011 mb | 414 ft | |||
| 02-मई | 20:30 | n/a | 310° | 15 kt | Missing | 13° | 55° | 9° | 48° | 77% | 1011 mb | 414 ft | |||
| 02-मई | 19:30 | n/a | 310° | 13 kt | Missing | 14° | 57° | 8° | 46° | 67% | 1011 mb | 534 ft | |||
| 02-मई | 18:30 | n/a | 310° | 14 kt | Missing | 15° | 59° | 8° | 46° | 63% | 1010 mb | 684 ft | |||
| 02-मई | 17:30 | n/a | 310° | 13 kt | Missing | 15° | 59° | 6° | 42° | 55% | 1010 mb | 684 ft | |||
| 02-मई | 16:31 | n/a | 300° | 15 kt | Missing | 17° | 62° | 4° | 39° | 42% | 1009 mb | 953 ft | Wind gusting to 25 KT | ||
| 02-मई | 15:30 | n/a | 300° | 17 kt | Missing | 18° | 64° | 5° | 41° | 42% | 1009 mb | 1,073 ft | |||
| 02-मई | 14:30 | n/a | 300° | 15 kt | Missing | 19° | 66° | 9° | 48° | 52% | 1008 mb | 1,223 ft | Wind gusting to 26 KT | ||
| 02-मई | 13:30 | n/a | 300° | 15 kt | Missing | 18° | 64° | 9° | 48° | 56% | 1008 mb | 1,103 ft | |||
| 02-मई | 12:30 | n/a | 290° | 16 kt | Missing | 17° | 62° | 11° | 51° | 68% | 1009 mb | 953 ft | |||
| 02-मई | 11:37 | n/a | 310° | 15 kt | Missing | 16° | 60° | 12° | 53° | 77% | 1009 mb | 833 ft | Wind gusting to 25 KT | ||
| 02-मई | 10:30 | n/a | 290° | 12 kt | Missing | 14° | 57° | 13° | 55° | 94% | 1010 mb | 564 ft |
लॉगिन
| Your browser is unsupported. अपना ब्राऊजर अपग्रेड करें |
